sensor_id;sensor_type;location;lat;lon;timestamp;P1;durP1;ratioP1;P2;durP2;ratioP2
72559;SDS011;62987;52.382;9.752;2023-10-19T05:26:55;30.95;;;13.68;;
72559;SDS011;62987;52.382;9.752;2023-10-19T05:29:24;32.55;;;14.93;;
72559;SDS011;62987;52.382;9.752;2023-10-19T05:31:53;29.17;;;15.13;;
72559;SDS011;62987;52.382;9.752;2023-10-19T05:34:25;34.13;;;15.45;;
72559;SDS011;62987;52.382;9.752;2023-10-19T05:36:53;30.02;;;13.80;;
72559;SDS011;62987;52.382;9.752;2023-10-19T05:39:26;31.92;;;15.55;;
72559;SDS011;62987;52.382;9.752;2023-10-19T05:41:56;33.22;;;15.80;;
72559;SDS011;62987;52.382;9.752;2023-10-19T05:44:28;28.90;;;14.77;;
72559;SDS011;62987;52.382;9.752;2023-10-19T05:46:58;36.53;;;16.92;;
72559;SDS011;62987;52.382;9.752;2023-10-19T05:49:27;38.35;;;15.43;;
72559;SDS011;62987;52.382;9.752;2023-10-19T05:51:56;39.03;;;17.50;;
72559;SDS011;62987;52.382;9.752;2023-10-19T05:54:25;41.28;;;16.70;;
72559;SDS011;62987;52.382;9.752;2023-10-19T05:56:57;36.50;;;16.23;;
72559;SDS011;62987;52.382;9.752;2023-10-19T05:59:25;31.67;;;13.90;;
72559;SDS011;62987;52.382;9.752;2023-10-19T06:01:56;28.67;;;12.40;;
72559;SDS011;62987;52.382;9.752;2023-10-19T06:04:25;29.60;;;13.95;;
72559;SDS011;62987;52.382;9.752;2023-10-19T06:06:53;24.58;;;10.82;;
72559;SDS011;62987;52.382;9.752;2023-10-19T06:09:21;24.85;;;11.63;;
72559;SDS011;62987;52.382;9.752;2023-10-19T06:11:57;23.05;;;10.88;;
72559;SDS011;62987;52.382;9.752;2023-10-19T06:14:26;23.02;;;11.82;;
72559;SDS011;62987;52.382;9.752;2023-10-19T06:17:16;24.88;;;11.13;;
72559;SDS011;62987;52.382;9.752;2023-10-19T06:19:46;16.73;;;8.57;;
72559;SDS011;62987;52.382;9.752;2023-10-19T06:22:14;20.65;;;10.35;;
72559;SDS011;62987;52.382;9.752;2023-10-19T06:25:34;19.98;;;10.07;;
72559;SDS011;62987;52.382;9.752;2023-10-19T06:28:03;20.27;;;10.35;;
72559;SDS011;62987;52.382;9.752;2023-10-19T06:30:39;19.13;;;10.57;;
72559;SDS011;62987;52.382;9.752;2023-10-19T06:33:07;23.50;;;10.52;;
72559;SDS011;62987;52.382;9.752;2023-10-19T06:35:37;16.10;;;6.97;;
72559;SDS011;62987;52.382;9.752;2023-10-19T06:38:07;19.42;;;10.00;;
72559;SDS011;62987;52.382;9.752;2023-10-19T06:40:38;19.33;;;9.32;;
72559;SDS011;62987;52.382;9.752;2023-10-19T06:43:06;21.63;;;9.55;;
72559;SDS011;62987;52.382;9.752;2023-10-19T06:45:36;19.35;;;9.77;;
72559;SDS011;62987;52.382;9.752;2023-10-19T06:48:09;16.63;;;8.65;;
72559;SDS011;62987;52.382;9.752;2023-10-19T06:50:47;17.85;;;8.93;;
72559;SDS011;62987;52.382;9.752;2023-10-19T06:53:22;20.73;;;9.48;;
72559;SDS011;62987;52.382;9.752;2023-10-19T06:55:52;18.65;;;9.52;;
72559;SDS011;62987;52.382;9.752;2023-10-19T06:58:21;17.08;;;8.68;;
72559;SDS011;62987;52.382;9.752;2023-10-19T07:00:53;21.55;;;8.80;;
72559;SDS011;62987;52.382;9.752;2023-10-19T07:03:26;20.67;;;9.57;;
72559;SDS011;62987;52.382;9.752;2023-10-19T07:05:56;16.30;;;8.18;;
72559;SDS011;62987;52.382;9.752;2023-10-19T07:08:25;17.23;;;8.00;;
72559;SDS011;62987;52.382;9.752;2023-10-19T07:10:55;17.98;;;8.15;;
72559;SDS011;62987;52.382;9.752;2023-10-19T07:13:24;19.33;;;9.20;;
72559;SDS011;62987;52.382;9.752;2023-10-19T07:16:00;15.95;;;7.63;;
72559;SDS011;62987;52.382;9.752;2023-10-19T07:18:30;14.75;;;8.15;;
72559;SDS011;62987;52.382;9.752;2023-10-19T07:20:59;15.32;;;7.95;;
72559;SDS011;62987;52.382;9.752;2023-10-19T07:23:30;13.45;;;7.38;;
72559;SDS011;62987;52.382;9.752;2023-10-19T07:26:00;15.45;;;7.03;;
72559;SDS011;62987;52.382;9.752;2023-10-19T07:28:29;14.77;;;8.18;;
72559;SDS011;62987;52.382;9.752;2023-10-19T07:30:58;14.43;;;6.63;;
72559;SDS011;62987;52.382;9.752;2023-10-19T07:33:27;15.32;;;7.75;;
72559;SDS011;62987;52.382;9.752;2023-10-19T07:35:55;12.55;;;6.38;;
72559;SDS011;62987;52.382;9.752;2023-10-19T07:38:28;11.27;;;6.38;;
72559;SDS011;62987;52.382;9.752;2023-10-19T07:41:01;12.23;;;7.63;;
72559;SDS011;62987;52.382;9.752;2023-10-19T07:43:32;13.60;;;7.32;;
72559;SDS011;62987;52.382;9.752;2023-10-19T07:46:01;12.80;;;6.57;;
72559;SDS011;62987;52.382;9.752;2023-10-19T07:48:30;14.55;;;7.28;;
72559;SDS011;62987;52.382;9.752;2023-10-19T07:51:02;14.45;;;7.68;;
72559;SDS011;62987;52.382;9.752;2023-10-19T07:53:31;13.75;;;7.47;;
72559;SDS011;62987;52.382;9.752;2023-10-19T07:55:59;13.57;;;7.35;;
72559;SDS011;62987;52.382;9.752;2023-10-19T07:58:29;13.43;;;6.65;;
72559;SDS011;62987;52.382;9.752;2023-10-19T08:00:58;12.90;;;6.65;;
72559;SDS011;62987;52.382;9.752;2023-10-19T08:03:28;14.35;;;7.30;;
72559;SDS011;62987;52.382;9.752;2023-10-19T08:05:57;12.75;;;6.80;;
72559;SDS011;62987;52.382;9.752;2023-10-19T08:08:26;12.45;;;6.95;;
72559;SDS011;62987;52.382;9.752;2023-10-19T08:11:00;13.52;;;6.90;;
72559;SDS011;62987;52.382;9.752;2023-10-19T08:13:31;12.35;;;6.07;;
72559;SDS011;62987;52.382;9.752;2023-10-19T08:15:59;12.50;;;5.85;;
72559;SDS011;62987;52.382;9.752;2023-10-19T08:18:28;13.20;;;6.40;;
72559;SDS011;62987;52.382;9.752;2023-10-19T08:20:57;10.80;;;5.35;;
72559;SDS011;62987;52.382;9.752;2023-10-19T08:23:28;12.48;;;6.38;;
72559;SDS011;62987;52.382;9.752;2023-10-19T08:25:58;11.40;;;6.40;;
72559;SDS011;62987;52.382;9.752;2023-10-19T08:28:27;11.27;;;5.85;;
72559;SDS011;62987;52.382;9.752;2023-10-19T08:30:57;10.00;;;6.28;;
72559;SDS011;62987;52.382;9.752;2023-10-19T08:33:28;14.05;;;6.30;;
72559;SDS011;62987;52.382;9.752;2023-10-19T08:36:00;12.60;;;6.07;;
72559;SDS011;62987;52.382;9.752;2023-10-19T08:38:29;13.63;;;6.47;;
72559;SDS011;62987;52.382;9.752;2023-10-19T08:40:58;11.70;;;6.03;;
72559;SDS011;62987;52.382;9.752;2023-10-19T08:43:29;11.85;;;5.97;;
72559;SDS011;62987;52.382;9.752;2023-10-19T08:46:02;10.27;;;5.68;;
72559;SDS011;62987;52.382;9.752;2023-10-19T08:48:33;10.70;;;5.85;;
72559;SDS011;62987;52.382;9.752;2023-10-19T08:51:05;11.07;;;5.50;;
72559;SDS011;62987;52.382;9.752;2023-10-19T08:53:37;11.70;;;5.93;;
72559;SDS011;62987;52.382;9.752;2023-10-19T08:56:11;12.55;;;6.10;;
72559;SDS011;62987;52.382;9.752;2023-10-19T08:58:40;9.88;;;4.93;;
72559;SDS011;62987;52.382;9.752;2023-10-19T09:01:13;11.70;;;6.28;;
72559;SDS011;62987;52.382;9.752;2023-10-19T09:03:44;10.82;;;5.45;;
72559;SDS011;62987;52.382;9.752;2023-10-19T09:06:13;9.07;;;4.68;;
72559;SDS011;62987;52.382;9.752;2023-10-19T09:08:48;10.75;;;5.78;;
72559;SDS011;62987;52.382;9.752;2023-10-19T09:11:17;11.07;;;6.10;;
72559;SDS011;62987;52.382;9.752;2023-10-19T09:13:48;11.35;;;6.47;;
72559;SDS011;62987;52.382;9.752;2023-10-19T09:16:21;11.93;;;6.40;;
72559;SDS011;62987;52.382;9.752;2023-10-19T09:18:53;12.43;;;5.65;;
72559;SDS011;62987;52.382;9.752;2023-10-19T09:21:23;11.23;;;5.38;;
72559;SDS011;62987;52.382;9.752;2023-10-19T09:23:55;11.18;;;5.60;;
72559;SDS011;62987;52.382;9.752;2023-10-19T09:26:25;11.43;;;5.40;;
72559;SDS011;62987;52.382;9.752;2023-10-19T09:28:54;11.15;;;6.82;;
72559;SDS011;62987;52.382;9.752;2023-10-19T09:31:24;12.70;;;5.88;;
72559;SDS011;62987;52.382;9.752;2023-10-19T09:33:54;13.38;;;5.75;;
72559;SDS011;62987;52.382;9.752;2023-10-19T09:36:24;13.75;;;6.40;;
72559;SDS011;62987;52.382;9.752;2023-10-19T09:38:57;11.63;;;6.20;;
72559;SDS011;62987;52.382;9.752;2023-10-19T09:41:26;15.43;;;7.93;;
72559;SDS011;62987;52.382;9.752;2023-10-19T09:43:57;12.95;;;6.47;;
72559;SDS011;62987;52.382;9.752;2023-10-19T09:46:34;13.23;;;7.57;;
72559;SDS011;62987;52.382;9.752;2023-10-19T09:49:08;15.98;;;7.18;;
72559;SDS011;62987;52.382;9.752;2023-10-19T09:51:40;13.68;;;7.05;;
72559;SDS011;62987;52.382;9.752;2023-10-19T09:54:34;12.90;;;7.05;;
72559;SDS011;62987;52.382;9.752;2023-10-19T09:57:16;13.73;;;7.43;;
72559;SDS011;62987;52.382;9.752;2023-10-19T09:59:51;11.02;;;6.25;;
72559;SDS011;62987;52.382;9.752;2023-10-19T10:02:39;14.98;;;7.22;;
72559;SDS011;62987;52.382;9.752;2023-10-19T10:08:31;17.30;;;9.23;;
72559;SDS011;62987;52.382;9.752;2023-10-19T10:11:12;14.75;;;8.05;;
72559;SDS011;62987;52.382;9.752;2023-10-19T10:13:46;16.08;;;8.20;;
72559;SDS011;62987;52.382;9.752;2023-10-19T10:16:19;15.55;;;8.32;;
72559;SDS011;62987;52.382;9.752;2023-10-19T10:18:53;15.98;;;7.82;;
72559;SDS011;62987;52.382;9.752;2023-10-19T10:21:27;14.27;;;8.02;;
72559;SDS011;62987;52.382;9.752;2023-10-19T10:23:57;14.65;;;8.75;;
72559;SDS011;62987;52.382;9.752;2023-10-19T10:26:27;19.58;;;9.02;;
72559;SDS011;62987;52.382;9.752;2023-10-19T10:29:09;17.10;;;8.20;;
72559;SDS011;62987;52.382;9.752;2023-10-19T10:31:42;14.18;;;7.80;;
72559;SDS011;62987;52.382;9.752;2023-10-19T10:34:16;17.05;;;8.30;;
72559;SDS011;62987;52.382;9.752;2023-10-19T10:37:11;16.27;;;8.40;;
72559;SDS011;62987;52.382;9.752;2023-10-19T10:39:41;14.48;;;8.25;;
72559;SDS011;62987;52.382;9.752;2023-10-19T10:42:12;14.57;;;8.20;;
72559;SDS011;62987;52.382;9.752;2023-10-19T10:44:44;12.18;;;7.07;;
72559;SDS011;62987;52.382;9.752;2023-10-19T10:47:15;14.15;;;7.88;;
72559;SDS011;62987;52.382;9.752;2023-10-19T10:49:50;12.07;;;7.28;;
72559;SDS011;62987;52.382;9.752;2023-10-19T10:52:24;14.77;;;7.57;;
72559;SDS011;62987;52.382;9.752;2023-10-19T10:54:56;13.82;;;7.03;;
72559;SDS011;62987;52.382;9.752;2023-10-19T10:57:30;13.55;;;6.55;;
72559;SDS011;62987;52.382;9.752;2023-10-19T11:00:04;11.73;;;6.25;;
72559;SDS011;62987;52.382;9.752;2023-10-19T11:02:34;10.88;;;5.97;;
72559;SDS011;62987;52.382;9.752;2023-10-19T11:05:10;12.73;;;6.55;;
72559;SDS011;62987;52.382;9.752;2023-10-19T11:07:41;13.57;;;6.93;;
72559;SDS011;62987;52.382;9.752;2023-10-19T11:10:30;11.38;;;6.68;;
72559;SDS011;62987;52.382;9.752;2023-10-19T11:13:01;13.30;;;6.85;;
72559;SDS011;62987;52.382;9.752;2023-10-19T11:15:30;12.38;;;6.70;;
72559;SDS011;62987;52.382;9.752;2023-10-19T11:18:00;11.75;;;6.40;;
72559;SDS011;62987;52.382;9.752;2023-10-19T11:20:31;11.27;;;6.22;;
72559;SDS011;62987;52.382;9.752;2023-10-19T11:22:59;11.35;;;5.88;;
72559;SDS011;62987;52.382;9.752;2023-10-19T11:25:31;12.88;;;6.13;;
72559;SDS011;62987;52.382;9.752;2023-10-19T11:28:00;11.27;;;6.30;;
72559;SDS011;62987;52.382;9.752;2023-10-19T11:30:31;11.77;;;6.63;;
72559;SDS011;62987;52.382;9.752;2023-10-19T11:33:04;12.13;;;6.18;;
72559;SDS011;62987;52.382;9.752;2023-10-19T11:35:34;11.85;;;6.20;;
72559;SDS011;62987;52.382;9.752;2023-10-19T11:38:02;12.60;;;6.43;;
72559;SDS011;62987;52.382;9.752;2023-10-19T11:40:31;9.63;;;5.70;;
72559;SDS011;62987;52.382;9.752;2023-10-19T11:43:00;12.30;;;5.95;;
72559;SDS011;62987;52.382;9.752;2023-10-19T11:45:28;10.13;;;4.85;;
72559;SDS011;62987;52.382;9.752;2023-10-19T11:47:59;11.48;;;5.80;;
72559;SDS011;62987;52.382;9.752;2023-10-19T11:50:28;12.13;;;6.63;;
72559;SDS011;62987;52.382;9.752;2023-10-19T11:53:01;10.40;;;5.68;;
72559;SDS011;62987;52.382;9.752;2023-10-19T11:55:30;11.55;;;6.55;;
72559;SDS011;62987;52.382;9.752;2023-10-19T11:57:58;12.13;;;6.97;;
72559;SDS011;62987;52.382;9.752;2023-10-19T12:00:27;10.18;;;5.75;;
72559;SDS011;62987;52.382;9.752;2023-10-19T12:03:01;11.70;;;5.85;;
72559;SDS011;62987;52.382;9.752;2023-10-19T12:05:34;14.00;;;6.15;;
72559;SDS011;62987;52.382;9.752;2023-10-19T12:08:05;11.80;;;6.07;;
72559;SDS011;62987;52.382;9.752;2023-10-19T12:10:34;14.60;;;7.03;;
72559;SDS011;62987;52.382;9.752;2023-10-19T12:13:06;11.10;;;6.00;;
72559;SDS011;62987;52.382;9.752;2023-10-19T12:15:36;11.45;;;6.68;;
72559;SDS011;62987;52.382;9.752;2023-10-19T12:18:05;12.55;;;6.13;;
72559;SDS011;62987;52.382;9.752;2023-10-19T12:20:35;12.90;;;6.72;;
72559;SDS011;62987;52.382;9.752;2023-10-19T12:23:05;12.93;;;6.70;;
72559;SDS011;62987;52.382;9.752;2023-10-19T12:25:33;13.80;;;6.93;;
72559;SDS011;62987;52.382;9.752;2023-10-19T12:28:22;12.82;;;6.40;;
72559;SDS011;62987;52.382;9.752;2023-10-19T12:30:51;14.27;;;7.43;;
72559;SDS011;62987;52.382;9.752;2023-10-19T12:33:20;15.02;;;7.18;;
72559;SDS011;62987;52.382;9.752;2023-10-19T12:35:49;13.55;;;6.75;;
72559;SDS011;62987;52.382;9.752;2023-10-19T12:38:20;13.27;;;7.18;;
72559;SDS011;62987;52.382;9.752;2023-10-19T12:40:49;15.18;;;8.57;;
72559;SDS011;62987;52.382;9.752;2023-10-19T12:43:18;17.80;;;8.85;;
72559;SDS011;62987;52.382;9.752;2023-10-19T12:45:49;18.08;;;8.55;;
72559;SDS011;62987;52.382;9.752;2023-10-19T12:48:21;19.45;;;9.10;;
72559;SDS011;62987;52.382;9.752;2023-10-19T12:50:52;16.40;;;9.02;;
72559;SDS011;62987;52.382;9.752;2023-10-19T12:53:22;17.50;;;8.90;;
72559;SDS011;62987;52.382;9.752;2023-10-19T12:55:51;16.98;;;7.93;;
72559;SDS011;62987;52.382;9.752;2023-10-19T12:58:20;15.20;;;7.78;;
72559;SDS011;62987;52.382;9.752;2023-10-19T13:00:48;18.60;;;8.40;;
72559;SDS011;62987;52.382;9.752;2023-10-19T13:03:17;18.88;;;9.52;;
72559;SDS011;62987;52.382;9.752;2023-10-19T13:05:45;14.82;;;8.05;;
72559;SDS011;62987;52.382;9.752;2023-10-19T13:08:16;18.27;;;8.90;;
72559;SDS011;62987;52.382;9.752;2023-10-19T13:10:47;18.38;;;8.35;;
72559;SDS011;62987;52.382;9.752;2023-10-19T13:13:19;18.05;;;9.70;;
72559;SDS011;62987;52.382;9.752;2023-10-19T13:15:50;20.42;;;8.68;;
72559;SDS011;62987;52.382;9.752;2023-10-19T13:18:21;17.63;;;9.25;;
72559;SDS011;62987;52.382;9.752;2023-10-19T13:20:55;19.83;;;10.23;;
72559;SDS011;62987;52.382;9.752;2023-10-19T13:23:24;18.92;;;8.98;;
72559;SDS011;62987;52.382;9.752;2023-10-19T13:25:58;18.33;;;8.85;;
72559;SDS011;62987;52.382;9.752;2023-10-19T13:28:39;20.30;;;8.70;;
72559;SDS011;62987;52.382;9.752;2023-10-19T13:31:07;18.58;;;8.93;;
72559;SDS011;62987;52.382;9.752;2023-10-19T13:33:36;22.88;;;10.32;;
72559;SDS011;62987;52.382;9.752;2023-10-19T13:36:05;20.27;;;9.50;;
72559;SDS011;62987;52.382;9.752;2023-10-19T13:38:34;22.27;;;10.02;;
72559;SDS011;62987;52.382;9.752;2023-10-19T13:41:04;19.08;;;9.27;;
72559;SDS011;62987;52.382;9.752;2023-10-19T13:43:34;17.15;;;8.80;;
72559;SDS011;62987;52.382;9.752;2023-10-19T13:46:05;18.88;;;9.25;;
72559;SDS011;62987;52.382;9.752;2023-10-19T13:48:33;16.92;;;8.90;;
72559;SDS011;62987;52.382;9.752;2023-10-19T13:51:02;19.50;;;8.70;;
72559;SDS011;62987;52.382;9.752;2023-10-19T13:53:40;19.02;;;9.07;;
72559;SDS011;62987;52.382;9.752;2023-10-19T13:56:13;19.08;;;8.75;;
72559;SDS011;62987;52.382;9.752;2023-10-19T13:58:42;19.73;;;9.35;;
72559;SDS011;62987;52.382;9.752;2023-10-19T14:01:14;18.63;;;8.95;;
72559;SDS011;62987;52.382;9.752;2023-10-19T14:03:44;15.60;;;8.05;;
72559;SDS011;62987;52.382;9.752;2023-10-19T14:06:13;18.42;;;8.45;;
72559;SDS011;62987;52.382;9.752;2023-10-19T14:08:43;21.73;;;10.02;;
72559;SDS011;62987;52.382;9.752;2023-10-19T14:11:13;20.83;;;9.25;;
72559;SDS011;62987;52.382;9.752;2023-10-19T14:13:42;21.30;;;9.90;;
72559;SDS011;62987;52.382;9.752;2023-10-19T14:16:11;17.98;;;9.05;;
72559;SDS011;62987;52.382;9.752;2023-10-19T14:18:40;19.70;;;9.73;;
72559;SDS011;62987;52.382;9.752;2023-10-19T14:21:10;22.98;;;9.88;;
72559;SDS011;62987;52.382;9.752;2023-10-19T14:23:41;17.77;;;9.23;;
72559;SDS011;62987;52.382;9.752;2023-10-19T14:26:10;21.52;;;10.02;;
72559;SDS011;62987;52.382;9.752;2023-10-19T14:28:40;23.33;;;9.68;;
72559;SDS011;62987;52.382;9.752;2023-10-19T14:31:09;22.10;;;9.70;;
72559;SDS011;62987;52.382;9.752;2023-10-19T14:33:39;22.77;;;11.32;;
72559;SDS011;62987;52.382;9.752;2023-10-19T14:36:08;24.67;;;10.25;;
72559;SDS011;62987;52.382;9.752;2023-10-19T14:38:37;20.48;;;9.98;;
72559;SDS011;62987;52.382;9.752;2023-10-19T14:41:06;24.00;;;10.32;;
72559;SDS011;62987;52.382;9.752;2023-10-19T14:43:36;22.55;;;10.85;;
72559;SDS011;62987;52.382;9.752;2023-10-19T14:46:06;20.83;;;10.50;;
72559;SDS011;62987;52.382;9.752;2023-10-19T14:48:35;23.60;;;11.43;;
72559;SDS011;62987;52.382;9.752;2023-10-19T14:51:04;23.67;;;10.68;;
72559;SDS011;62987;52.382;9.752;2023-10-19T14:53:35;29.13;;;10.95;;
72559;SDS011;62987;52.382;9.752;2023-10-19T14:56:04;32.40;;;11.85;;
72559;SDS011;62987;52.382;9.752;2023-10-19T14:58:35;28.58;;;12.65;;
72559;SDS011;62987;52.382;9.752;2023-10-19T15:01:04;27.50;;;12.63;;
72559;SDS011;62987;52.382;9.752;2023-10-19T15:03:34;28.70;;;12.55;;
72559;SDS011;62987;52.382;9.752;2023-10-19T15:06:04;27.85;;;12.25;;
72559;SDS011;62987;52.382;9.752;2023-10-19T15:08:33;24.98;;;11.80;;
72559;SDS011;62987;52.382;9.752;2023-10-19T15:11:02;29.77;;;11.93;;
72559;SDS011;62987;52.382;9.752;2023-10-19T15:13:30;28.58;;;13.95;;
72559;SDS011;62987;52.382;9.752;2023-10-19T15:16:06;26.85;;;13.10;;
72559;SDS011;62987;52.382;9.752;2023-10-19T15:18:37;27.85;;;12.57;;
72559;SDS011;62987;52.382;9.752;2023-10-19T15:21:09;33.13;;;15.68;;
72559;SDS011;62987;52.382;9.752;2023-10-19T15:23:38;30.90;;;13.15;;
72559;SDS011;62987;52.382;9.752;2023-10-19T15:26:16;36.22;;;14.32;;
72559;SDS011;62987;52.382;9.752;2023-10-19T15:28:45;32.95;;;13.20;;
72559;SDS011;62987;52.382;9.752;2023-10-19T15:31:13;33.35;;;14.45;;
72559;SDS011;62987;52.382;9.752;2023-10-19T15:33:49;31.73;;;13.77;;
72559;SDS011;62987;52.382;9.752;2023-10-19T15:36:17;32.22;;;14.35;;
72559;SDS011;62987;52.382;9.752;2023-10-19T15:38:46;35.65;;;14.60;;
72559;SDS011;62987;52.382;9.752;2023-10-19T15:41:16;32.10;;;14.68;;
72559;SDS011;62987;52.382;9.752;2023-10-19T15:43:44;35.58;;;14.18;;
72559;SDS011;62987;52.382;9.752;2023-10-19T15:46:12;32.03;;;14.18;;
72559;SDS011;62987;52.382;9.752;2023-10-19T15:48:42;29.27;;;14.05;;
72559;SDS011;62987;52.382;9.752;2023-10-19T15:51:15;34.10;;;13.70;;
72559;SDS011;62987;52.382;9.752;2023-10-19T15:53:46;34.08;;;14.43;;
72559;SDS011;62987;52.382;9.752;2023-10-19T15:56:15;35.22;;;14.73;;
72559;SDS011;62987;52.382;9.752;2023-10-19T15:58:46;39.55;;;15.43;;
72559;SDS011;62987;52.382;9.752;2023-10-19T16:01:15;30.63;;;12.73;;
72559;SDS011;62987;52.382;9.752;2023-10-19T16:03:44;35.47;;;14.30;;
72559;SDS011;62987;52.382;9.752;2023-10-19T16:06:15;34.20;;;15.73;;
72559;SDS011;62987;52.382;9.752;2023-10-19T16:08:43;37.90;;;14.32;;
72559;SDS011;62987;52.382;9.752;2023-10-19T16:11:12;41.70;;;15.57;;
72559;SDS011;62987;52.382;9.752;2023-10-19T16:13:40;38.90;;;15.00;;
72559;SDS011;62987;52.382;9.752;2023-10-19T16:38:36;39.22;;;15.57;;
72559;SDS011;62987;52.382;9.752;2023-10-19T16:41:05;39.78;;;15.43;;
72559;SDS011;62987;52.382;9.752;2023-10-19T16:43:37;41.25;;;16.17;;
72559;SDS011;62987;52.382;9.752;2023-10-19T16:46:05;39.58;;;15.80;;
72559;SDS011;62987;52.382;9.752;2023-10-19T16:48:34;47.40;;;14.82;;
72559;SDS011;62987;52.382;9.752;2023-10-19T16:51:04;44.70;;;16.83;;
72559;SDS011;62987;52.382;9.752;2023-10-19T16:53:34;42.53;;;15.68;;
72559;SDS011;62987;52.382;9.752;2023-10-19T16:56:04;44.80;;;15.70;;
72559;SDS011;62987;52.382;9.752;2023-10-19T16:58:33;36.58;;;14.90;;
72559;SDS011;62987;52.382;9.752;2023-10-19T17:01:04;41.35;;;16.40;;
72559;SDS011;62987;52.382;9.752;2023-10-19T17:03:39;38.85;;;16.00;;
72559;SDS011;62987;52.382;9.752;2023-10-19T17:06:08;38.10;;;15.55;;
72559;SDS011;62987;52.382;9.752;2023-10-19T17:08:38;46.83;;;17.70;;
72559;SDS011;62987;52.382;9.752;2023-10-19T17:11:07;49.40;;;18.40;;
72559;SDS011;62987;52.382;9.752;2023-10-19T17:13:35;42.92;;;17.55;;
72559;SDS011;62987;52.382;9.752;2023-10-19T17:16:04;43.25;;;17.02;;
72559;SDS011;62987;52.382;9.752;2023-10-19T17:18:33;46.80;;;17.70;;
72559;SDS011;62987;52.382;9.752;2023-10-19T17:21:02;41.90;;;16.05;;
72559;SDS011;62987;52.382;9.752;2023-10-19T17:23:31;40.85;;;15.32;;
72559;SDS011;62987;52.382;9.752;2023-10-19T17:26:01;43.97;;;16.02;;
72559;SDS011;62987;52.382;9.752;2023-10-19T17:28:30;41.33;;;16.10;;
72559;SDS011;62987;52.382;9.752;2023-10-19T17:31:00;45.63;;;15.38;;
72559;SDS011;62987;52.382;9.752;2023-10-19T17:33:29;42.80;;;16.73;;
72559;SDS011;62987;52.382;9.752;2023-10-19T17:35:58;47.65;;;17.42;;
72559;SDS011;62987;52.382;9.752;2023-10-19T17:38:26;47.42;;;15.93;;
72559;SDS011;62987;52.382;9.752;2023-10-19T17:40:55;38.67;;;14.45;;
72559;SDS011;62987;52.382;9.752;2023-10-19T17:43:25;42.13;;;15.70;;
72559;SDS011;62987;52.382;9.752;2023-10-19T17:45:54;38.20;;;15.68;;
72559;SDS011;62987;52.382;9.752;2023-10-19T17:48:25;42.42;;;15.93;;
72559;SDS011;62987;52.382;9.752;2023-10-19T17:50:54;36.03;;;14.35;;
72559;SDS011;62987;52.382;9.752;2023-10-19T17:53:23;33.67;;;14.20;;
72559;SDS011;62987;52.382;9.752;2023-10-19T17:55:52;37.38;;;14.15;;
72559;SDS011;62987;52.382;9.752;2023-10-19T17:58:25;42.25;;;16.55;;
72559;SDS011;62987;52.382;9.752;2023-10-19T18:00:53;41.92;;;16.98;;
72559;SDS011;62987;52.382;9.752;2023-10-19T18:03:22;46.00;;;15.77;;
72559;SDS011;62987;52.382;9.752;2023-10-19T18:05:52;43.83;;;16.35;;
72559;SDS011;62987;52.382;9.752;2023-10-19T18:08:21;44.20;;;15.82;;
72559;SDS011;62987;52.382;9.752;2023-10-19T18:10:51;50.13;;;15.52;;
72559;SDS011;62987;52.382;9.752;2023-10-19T18:13:20;43.72;;;15.95;;
72559;SDS011;62987;52.382;9.752;2023-10-19T18:15:51;48.33;;;15.50;;
72559;SDS011;62987;52.382;9.752;2023-10-19T18:18:20;38.38;;;15.02;;
72559;SDS011;62987;52.382;9.752;2023-10-19T18:20:51;38.40;;;15.65;;
72559;SDS011;62987;52.382;9.752;2023-10-19T18:23:20;38.90;;;14.45;;
72559;SDS011;62987;52.382;9.752;2023-10-19T18:25:48;39.30;;;15.02;;
72559;SDS011;62987;52.382;9.752;2023-10-19T18:28:17;48.47;;;16.20;;
72559;SDS011;62987;52.382;9.752;2023-10-19T18:30:55;45.70;;;17.33;;
72559;SDS011;62987;52.382;9.752;2023-10-19T18:33:24;39.75;;;15.82;;
72559;SDS011;62987;52.382;9.752;2023-10-19T18:35:57;43.60;;;15.40;;
72559;SDS011;62987;52.382;9.752;2023-10-19T18:38:26;41.08;;;15.35;;
72559;SDS011;62987;52.382;9.752;2023-10-19T18:40:57;40.38;;;15.18;;
72559;SDS011;62987;52.382;9.752;2023-10-19T18:43:27;45.85;;;16.42;;
72559;SDS011;62987;52.382;9.752;2023-10-19T18:45:58;43.17;;;15.48;;
72559;SDS011;62987;52.382;9.752;2023-10-19T18:48:27;39.95;;;15.63;;
72559;SDS011;62987;52.382;9.752;2023-10-19T18:50:57;41.05;;;15.55;;
72559;SDS011;62987;52.382;9.752;2023-10-19T18:53:27;40.95;;;15.52;;
72559;SDS011;62987;52.382;9.752;2023-10-19T18:55:56;40.50;;;16.33;;
72559;SDS011;62987;52.382;9.752;2023-10-19T18:58:25;42.65;;;14.18;;
72559;SDS011;62987;52.382;9.752;2023-10-19T19:00:57;44.20;;;16.20;;
72559;SDS011;62987;52.382;9.752;2023-10-19T19:03:29;42.47;;;15.55;;
72559;SDS011;62987;52.382;9.752;2023-10-19T19:06:00;36.33;;;16.35;;
72559;SDS011;62987;52.382;9.752;2023-10-19T19:08:31;50.72;;;16.95;;
72559;SDS011;62987;52.382;9.752;2023-10-19T19:11:07;42.10;;;15.82;;
72559;SDS011;62987;52.382;9.752;2023-10-19T19:13:39;40.58;;;14.32;;
72559;SDS011;62987;52.382;9.752;2023-10-19T19:16:10;37.00;;;14.25;;
72559;SDS011;62987;52.382;9.752;2023-10-19T19:18:39;46.20;;;16.15;;
72559;SDS011;62987;52.382;9.752;2023-10-19T19:21:08;43.78;;;14.45;;
72559;SDS011;62987;52.382;9.752;2023-10-19T19:23:37;44.17;;;15.02;;
72559;SDS011;62987;52.382;9.752;2023-10-19T19:26:08;44.58;;;14.32;;
72559;SDS011;62987;52.382;9.752;2023-10-19T19:28:38;40.67;;;13.52;;
72559;SDS011;62987;52.382;9.752;2023-10-19T19:31:14;44.28;;;14.00;;
72559;SDS011;62987;52.382;9.752;2023-10-19T19:33:47;44.63;;;15.38;;
72559;SDS011;62987;52.382;9.752;2023-10-19T19:36:15;40.88;;;13.52;;
72559;SDS011;62987;52.382;9.752;2023-10-19T19:38:44;36.88;;;12.93;;
72559;SDS011;62987;52.382;9.752;2023-10-19T19:41:13;28.77;;;12.57;;
72559;SDS011;62987;52.382;9.752;2023-10-19T19:43:42;38.67;;;13.93;;
72559;SDS011;62987;52.382;9.752;2023-10-19T19:46:11;34.33;;;13.25;;
72559;SDS011;62987;52.382;9.752;2023-10-19T19:48:42;32.50;;;12.95;;
72559;SDS011;62987;52.382;9.752;2023-10-19T19:51:12;32.90;;;12.90;;
72559;SDS011;62987;52.382;9.752;2023-10-19T19:53:43;37.00;;;12.82;;
72559;SDS011;62987;52.382;9.752;2023-10-19T19:56:24;28.38;;;10.18;;
72559;SDS011;62987;52.382;9.752;2023-10-19T19:58:54;30.05;;;11.77;;
72559;SDS011;62987;52.382;9.752;2023-10-19T20:01:24;28.23;;;10.93;;
72559;SDS011;62987;52.382;9.752;2023-10-19T20:03:55;35.92;;;11.00;;
72559;SDS011;62987;52.382;9.752;2023-10-19T20:06:25;32.22;;;12.35;;
72559;SDS011;62987;52.382;9.752;2023-10-19T20:08:54;26.00;;;11.02;;
72559;SDS011;62987;52.382;9.752;2023-10-19T20:11:24;27.40;;;10.02;;
72559;SDS011;62987;52.382;9.752;2023-10-19T20:13:53;28.60;;;11.23;;
72559;SDS011;62987;52.382;9.752;2023-10-19T20:16:21;27.60;;;10.80;;
72559;SDS011;62987;52.382;9.752;2023-10-19T20:18:54;27.00;;;10.50;;
72559;SDS011;62987;52.382;9.752;2023-10-19T20:21:24;27.85;;;8.70;;
72559;SDS011;62987;52.382;9.752;2023-10-19T20:23:56;28.08;;;11.27;;
72559;SDS011;62987;52.382;9.752;2023-10-19T20:26:25;27.55;;;10.35;;
72559;SDS011;62987;52.382;9.752;2023-10-19T20:28:54;25.98;;;10.23;;
72559;SDS011;62987;52.382;9.752;2023-10-19T20:31:23;29.77;;;10.35;;
72559;SDS011;62987;52.382;9.752;2023-10-19T20:33:54;25.45;;;10.73;;
72559;SDS011;62987;52.382;9.752;2023-10-19T20:36:23;25.10;;;9.70;;
72559;SDS011;62987;52.382;9.752;2023-10-19T20:38:52;20.75;;;9.60;;
72559;SDS011;62987;52.382;9.752;2023-10-19T20:41:22;26.02;;;11.40;;